AirNav   Everest Fuels
 
 728 users online  

IL98 Chicagoland Speedway Heliport
Joliet, Illinois, USA

GOING TO JOLIET?


FAA INFORMATION EFFECTIVE 18 JUNE 2020

Location

FAA Identifier: IL98
Lat/Long: 41-28-47.0000N 088-03-30.0000W
41-28.783333N 088-03.500000W
41.4797222,-88.0583333
(estimated)
Elevation: 650 ft. / 198 m (estimated)
Variation: 02W (2000)
From city: 4 miles S of JOLIET, IL
Time zone: UTC -5 (UTC -6 during Standard Time)
Zip code: 60436

Heliport Operations

Heliport use: Private use. Permission required prior to landing
Activation date: 11/2002
Control tower: no
ARTCC: CHICAGO CENTER
FSS: KANKAKEE FLIGHT SERVICE STATION
Attendance: UNATNDD
Segmented circle: no

Heliport Communications

WX AWOS-3 at JOT (6 nm NW): 119.975 (815-730-9560)
WX AWOS-3 at LOT (8 nm N): 118.525 (815-588-4802)
WX AWOS-3 at C09 (17 nm W): 118.175 (815-941-1815)
WX AWOS-AV at C56 (18 nm E): 119.125 (708-534-5256)

Nearby radio navigation aids

VOR radial/distance  VOR name  Freq  Var
JOTr107/12.4JOLIET VOR/DME112.3002E
EONr314/17.4PEOTONE VORTAC113.2002E
CGTr263/22.0CHICAGO HEIGHTS VORTAC114.2002E
IKKr339/26.1KANKAKEE VOR/DME111.6000E
DPAr150/27.9DUPAGE VOR/DME108.4002E

Heliport Services

Runway Information

Helipad H1

Dimensions: 100 x 100 ft. / 30 x 30 m
Surface: turf, in good condition
Traffic pattern: leftleft

Heliport Ownership and Management from official FAA records

Ownership: Privately-owned
Owner: RACEWAY ASSOCIATES
500 SPEEDWAY BLVD.
JOLIET, IL 60433
Phone 815-722-5500
Manager: JOHN BRECKLIN
500 SPEEDWAY BLVD.
JOLIET, IL 60433
Phone 815-722-3058

Additional Remarks

A52-H1 26 FT PLINE 550 FT N, 57 FT TREES 490 FT NE, 22 FT BLDG 310 FT E, 47 FT SIGNS 265 FT S, 67 FT POLE 495 FT SW, 145 FT TOWER 2250 FT NW, 240 FT PLINE 2500 FT SE, AND 240 FT TOWER 2400 FT SE.
WEST OF ID MARKER, ARPT HAS 3 CONCRETE HELICOPTER PARKING PADS.
FOR CD CTC CHICAGO APCH AT 847-289-0926.

Instrument Procedures

There are no published instrument procedures at IL98.

Some nearby airports with instrument procedures:

KLOT - Lewis University Airport (8 nm N)
1C5 - Bolingbrook's Clow International Airport (13 nm N)
C09 - Morris Municipal Airport-James R. Washburn Field (17 nm W)
C56 - Bult Field Airport (18 nm E)
KMDW - Chicago Midway International Airport (23 nm NE)
 
Loc | Ops | Rwys | IFR | FBO | Links
Com | Nav | Svcs | Stats | Notes
Area around IL98 (Chicagoland Speedway Heliport)
 
Road maps at: MapQuest Bing Google
 
Aerial photo
No photo
 
Sectional chart

 
Airport distance calculator
Flying to Chicagoland Speedway Heliport? Find the distance to fly.

From to IL98

Sunrise and sunset
Times for 05-Jul-2020
 Local
(UTC-5)
 Zulu
(UTC)
Morning civil twilight04:5209:52
Sunrise05:2610:26
Sunset20:2801:28
Evening civil twilight21:0102:01

Current date and time
Zulu (UTC)  05-Jul-2020 13:36:38
Local (UTC-5)  05-Jul-2020 08:36:38
 
METAR
KJOT 
5nm NW 
051315Z AUTO 00000KT 5SM HZ CLR 27/21 A3002 RMK AO2 T02720209
KLOT 
8nm N 
051315Z AUTO 11004KT 7SM CLR 27/20 A3002 RMK AO2 T02650203
KC09 
16nm W 
051319Z AUTO 00000KT 2 1/2SM HZ CLR 25/21 A3001 RMK AO2
TAF
KMDW 
23nm NE 
051126Z 0512/0618 04007KT P6SM SKC FM060300 VRB03KT P6SM FEW300 FM061700 08009KT P6SM FEW050
KDPA 
28nm N 
051126Z 0512/0612 04006KT P6SM SKC FM060300 00000KT P6SM FEW300
NOTAMs
Click for the latest NOTAMs
NOTAMs are issued by the DoD/FAA and will open in a separate window not controlled by AirNav.

 

 
 

Would you like to see your business listed on this page?

 If your business provides an interesting product or service to pilots, flight crews, aircraft, or users of the Chicagoland Speedway Heliport, you should consider listing it here.  To start the listing process, click on the button below
 
Add a business
 

Other Pages about Chicagoland Speedway Heliport

Update a link
 
Copyright © AirNav, LLC. All rights reserved. Privacy Policy  Contact